Terminal Aerodrome Forecast
Issued by NWS

Home | Current Version | Previous Version | Text Only | Print | Product List | Glossary On
Versions: 1 2 3 4 5 6 7 8 9 10 11 12 13 14 15 16 17 18 19 20 21 22 23 24 25 26 27 28 29 30 31 32 33 34 35 36 37 38 39 40 41 42 43 44 45 46 47 48 49 50
000
FTUS45 KBOU 132335
TAFBJC
TAF
KBJC 132335Z 1400/1424 28022G35KT P6SM FEW080 SCT150
     FM140200 31015G28KT P6SM FEW080 SCT150
     FM140600 01014G22KT P6SM FEW080 SCT200
     FM140800 08007KT P6SM FEW080 SCT200
     FM141200 15008KT P6SM FEW120 SCT180
     FM141500 15008KT P6SM SCT120 BKN180
     FM142100 29010G20KT P6SM SCT080 BKN120=

USA.gov is the U.S. government's official web portal to all federal, state and local government web resources and services.